sensor_id;sensor_type;location;lat;lon;timestamp;pressure;altitude;pressure_sealevel;temperature;humidity
33554;BME280;19885;42.208;24.952;2023-04-24T00:00:21;99721.88;;;11.41;78.51
33554;BME280;19885;42.208;24.952;2023-04-24T00:02:46;99717.53;;;11.41;79.98
33554;BME280;19885;42.208;24.952;2023-04-24T00:05:14;99723.63;;;11.48;78.13
33554;BME280;19885;42.208;24.952;2023-04-24T00:07:40;99726.22;;;11.40;77.94
33554;BME280;19885;42.208;24.952;2023-04-24T00:10:07;99736.66;;;11.40;78.47
33554;BME280;19885;42.208;24.952;2023-04-24T00:12:32;99736.66;;;11.39;79.33
33554;BME280;19885;42.208;24.952;2023-04-24T00:14:59;99728.84;;;11.39;80.09
33554;BME280;19885;42.208;24.952;2023-04-24T00:17:25;99729.69;;;11.30;81.57
33554;BME280;19885;42.208;24.952;2023-04-24T00:19:50;99670.53;;;11.02;79.77
33554;BME280;19885;42.208;24.952;2023-04-24T00:22:17;99735.78;;;11.41;80.65
33554;BME280;19885;42.208;24.952;2023-04-24T00:24:42;99737.53;;;11.41;81.03
33554;BME280;19885;42.208;24.952;2023-04-24T00:27:08;99707.09;;;11.32;80.31
33554;BME280;19885;42.208;24.952;2023-04-24T00:29:34;99726.22;;;11.33;81.76
33554;BME280;19885;42.208;24.952;2023-04-24T00:31:59;99700.09;;;11.16;79.83
33554;BME280;19885;42.208;24.952;2023-04-24T00:34:25;99731.41;;;11.16;79.67
33554;BME280;19885;42.208;24.952;2023-04-24T00:36:50;99727.91;;;11.10;81.37
33554;BME280;19885;42.208;24.952;2023-04-24T00:39:20;99715.72;;;11.09;81.03
33554;BME280;19885;42.208;24.952;2023-04-24T00:41:46;99713.97;;;10.91;80.80
33554;BME280;19885;42.208;24.952;2023-04-24T00:44:13;99683.47;;;10.70;82.06
33554;BME280;19885;42.208;24.952;2023-04-24T00:46:39;99727.00;;;10.97;81.22
33554;BME280;19885;42.208;24.952;2023-04-24T00:49:05;99717.44;;;10.93;82.15
33554;BME280;19885;42.208;24.952;2023-04-24T00:51:31;99700.06;;;10.88;83.00
33554;BME280;19885;42.208;24.952;2023-04-24T00:54:01;99706.13;;;10.97;82.15
33554;BME280;19885;42.208;24.952;2023-04-24T00:56:27;99716.59;;;11.06;81.74
33554;BME280;19885;42.208;24.952;2023-04-24T00:58:53;99710.53;;;11.06;81.74
33554;BME280;19885;42.208;24.952;2023-04-24T01:01:22;99719.22;;;11.09;81.28
33554;BME280;19885;42.208;24.952;2023-04-24T01:03:49;99715.72;;;11.04;81.38
33554;BME280;19885;42.208;24.952;2023-04-24T01:06:16;99712.25;;;10.99;82.06
33554;BME280;19885;42.208;24.952;2023-04-24T01:08:42;99715.72;;;10.98;81.81
33554;BME280;19885;42.208;24.952;2023-04-24T01:11:08;99719.16;;;10.91;81.79
33554;BME280;19885;42.208;24.952;2023-04-24T01:13:34;99715.69;;;10.86;81.58
33554;BME280;19885;42.208;24.952;2023-04-24T01:16:00;99703.47;;;10.79;82.51
33554;BME280;19885;42.208;24.952;2023-04-24T01:18:27;99704.34;;;10.73;82.39
33554;BME280;19885;42.208;24.952;2023-04-24T01:20:53;99723.47;;;10.77;82.53
33554;BME280;19885;42.208;24.952;2023-04-24T01:23:22;99711.28;;;10.62;82.57
33554;BME280;19885;42.208;24.952;2023-04-24T01:25:48;99722.59;;;10.67;83.36
33554;BME280;19885;42.208;24.952;2023-04-24T01:28:14;99721.66;;;10.61;82.77
33554;BME280;19885;42.208;24.952;2023-04-24T01:30:39;99715.59;;;10.56;82.66
33554;BME280;19885;42.208;24.952;2023-04-24T01:33:05;99703.34;;;10.43;82.59
33554;BME280;19885;42.208;24.952;2023-04-24T01:35:31;99658.13;;;10.20;83.69
33554;BME280;19885;42.208;24.952;2023-04-24T01:37:57;99705.97;;;10.46;83.03
33554;BME280;19885;42.208;24.952;2023-04-24T01:40:22;99712.91;;;10.39;83.72
33554;BME280;19885;42.208;24.952;2023-04-24T01:42:48;99714.63;;;10.36;84.51
33554;BME280;19885;42.208;24.952;2023-04-24T01:45:13;99692.88;;;10.34;83.26
33554;BME280;19885;42.208;24.952;2023-04-24T01:47:39;99704.19;;;10.31;83.48
33554;BME280;19885;42.208;24.952;2023-04-24T01:50:05;99703.25;;;10.25;82.86
33554;BME280;19885;42.208;24.952;2023-04-24T01:52:31;99703.16;;;10.10;83.57
33554;BME280;19885;42.208;24.952;2023-04-24T01:55:02;99717.97;;;10.18;84.07
33554;BME280;19885;42.208;24.952;2023-04-24T01:57:29;99702.25;;;10.01;84.24
33554;BME280;19885;42.208;24.952;2023-04-24T01:59:56;99722.19;;;10.02;83.26
33554;BME280;19885;42.208;24.952;2023-04-24T02:02:21;99718.59;;;9.84;83.46
33554;BME280;19885;42.208;24.952;2023-04-24T02:04:49;99724.47;;;9.56;84.11
33554;BME280;19885;42.208;24.952;2023-04-24T02:07:15;99681.69;;;9.22;84.88
33554;BME280;19885;42.208;24.952;2023-04-24T02:09:40;99679.81;;;9.06;86.03
33554;BME280;19885;42.208;24.952;2023-04-24T02:12:06;99726.63;;;9.12;86.26
33554;BME280;19885;42.208;24.952;2023-04-24T02:14:31;99726.56;;;9.04;86.32
33554;BME280;19885;42.208;24.952;2023-04-24T02:16:57;99700.38;;;8.85;86.71
33554;BME280;19885;42.208;24.952;2023-04-24T02:19:22;99707.28;;;8.83;87.45
33554;BME280;19885;42.208;24.952;2023-04-24T02:21:48;99714.19;;;8.81;87.25
33554;BME280;19885;42.208;24.952;2023-04-24T02:24:13;99722.88;;;8.83;87.80
33554;BME280;19885;42.208;24.952;2023-04-24T02:26:39;99709.00;;;8.84;88.46
33554;BME280;19885;42.208;24.952;2023-04-24T02:29:04;99722.09;;;8.91;88.64
33554;BME280;19885;42.208;24.952;2023-04-24T02:31:30;99709.97;;;8.93;89.01
33554;BME280;19885;42.208;24.952;2023-04-24T02:33:55;99718.81;;;9.07;88.60
33554;BME280;19885;42.208;24.952;2023-04-24T02:36:21;99709.28;;;9.08;89.10
33554;BME280;19885;42.208;24.952;2023-04-24T02:38:46;99703.28;;;9.15;87.83
33554;BME280;19885;42.208;24.952;2023-04-24T02:41:12;99692.00;;;9.16;87.20
33554;BME280;19885;42.208;24.952;2023-04-24T02:43:37;99691.16;;;9.17;86.84
33554;BME280;19885;42.208;24.952;2023-04-24T02:46:02;99689.41;;;9.14;88.58
33554;BME280;19885;42.208;24.952;2023-04-24T02:48:28;99705.97;;;9.27;88.76
33554;BME280;19885;42.208;24.952;2023-04-24T02:50:53;99683.47;;;9.26;87.90
33554;BME280;19885;42.208;24.952;2023-04-24T02:53:19;99690.41;;;9.31;87.22
33554;BME280;19885;42.208;24.952;2023-04-24T02:55:44;99714.69;;;9.32;87.36
33554;BME280;19885;42.208;24.952;2023-04-24T02:58:11;99708.53;;;9.19;87.48
33554;BME280;19885;42.208;24.952;2023-04-24T03:00:38;99698.09;;;9.18;88.24
33554;BME280;19885;42.208;24.952;2023-04-24T03:03:04;99705.09;;;9.23;88.05
33554;BME280;19885;42.208;24.952;2023-04-24T03:05:33;99706.03;;;9.30;88.26
33554;BME280;19885;42.208;24.952;2023-04-24T03:07:59;99699.91;;;9.25;89.30
33554;BME280;19885;42.208;24.952;2023-04-24T03:10:29;99698.19;;;9.25;89.32
33554;BME280;19885;42.208;24.952;2023-04-24T03:12:56;99704.38;;;9.38;88.36
33554;BME280;19885;42.208;24.952;2023-04-24T03:15:22;99700.88;;;9.36;87.17
33554;BME280;19885;42.208;24.952;2023-04-24T03:17:47;99688.63;;;9.23;87.38
33554;BME280;19885;42.208;24.952;2023-04-24T03:20:13;99699.06;;;9.26;87.90
33554;BME280;19885;42.208;24.952;2023-04-24T03:22:39;99702.59;;;9.32;87.90
33554;BME280;19885;42.208;24.952;2023-04-24T03:25:05;99696.41;;;9.23;88.55
33554;BME280;19885;42.208;24.952;2023-04-24T03:27:31;99705.19;;;9.32;88.24
33554;BME280;19885;42.208;24.952;2023-04-24T03:29:57;99695.63;;;9.31;87.73
33554;BME280;19885;42.208;24.952;2023-04-24T03:32:23;99697.34;;;9.29;88.18
33554;BME280;19885;42.208;24.952;2023-04-24T03:34:49;99690.38;;;9.27;88.89
33554;BME280;19885;42.208;24.952;2023-04-24T03:37:16;99709.56;;;9.38;89.06
33554;BME280;19885;42.208;24.952;2023-04-24T03:39:42;99713.06;;;9.40;89.25
33554;BME280;19885;42.208;24.952;2023-04-24T03:42:08;99710.41;;;9.36;88.26
33554;BME280;19885;42.208;24.952;2023-04-24T03:44:35;99730.47;;;9.50;87.65
33554;BME280;19885;42.208;24.952;2023-04-24T03:47:01;99727.81;;;9.46;87.37
33554;BME280;19885;42.208;24.952;2023-04-24T03:49:26;99717.34;;;9.33;87.95
33554;BME280;19885;42.208;24.952;2023-04-24T03:51:52;99746.97;;;9.52;88.00
33554;BME280;19885;42.208;24.952;2023-04-24T03:54:18;99712.16;;;9.37;88.17
33554;BME280;19885;42.208;24.952;2023-04-24T03:56:44;99742.66;;;9.57;87.86
33554;BME280;19885;42.208;24.952;2023-04-24T03:59:09;99737.44;;;9.51;88.51
33554;BME280;19885;42.208;24.952;2023-04-24T04:01:35;99721.72;;;9.41;88.40
33554;BME280;19885;42.208;24.952;2023-04-24T04:04:08;99740.03;;;9.54;89.66
33554;BME280;19885;42.208;24.952;2023-04-24T04:06:34;99735.66;;;9.47;88.76
33554;BME280;19885;42.208;24.952;2023-04-24T04:09:00;99739.22;;;9.61;89.27
33554;BME280;19885;42.208;24.952;2023-04-24T04:11:26;99742.75;;;9.66;88.96
33554;BME280;19885;42.208;24.952;2023-04-24T04:13:52;99732.34;;;9.68;88.91
33554;BME280;19885;42.208;24.952;2023-04-24T04:16:18;99742.81;;;9.75;89.51
33554;BME280;19885;42.208;24.952;2023-04-24T04:18:44;99735.03;;;9.78;88.91
33554;BME280;19885;42.208;24.952;2023-04-24T04:21:10;99742.88;;;9.84;88.19
33554;BME280;19885;42.208;24.952;2023-04-24T04:23:36;99742.91;;;9.87;88.21
33554;BME280;19885;42.208;24.952;2023-04-24T04:26:02;99746.44;;;9.92;88.81
33554;BME280;19885;42.208;24.952;2023-04-24T04:28:29;99736.06;;;10.00;89.34
33554;BME280;19885;42.208;24.952;2023-04-24T04:30:56;99737.91;;;10.12;89.44
33554;BME280;19885;42.208;24.952;2023-04-24T04:33:23;99749.25;;;10.23;88.50
33554;BME280;19885;42.208;24.952;2023-04-24T04:35:49;99683.97;;;9.92;88.51
33554;BME280;19885;42.208;24.952;2023-04-24T04:38:15;99743.28;;;10.39;88.00
33554;BME280;19885;42.208;24.952;2023-04-24T04:40:42;99739.84;;;10.46;88.58
33554;BME280;19885;42.208;24.952;2023-04-24T04:43:08;99696.34;;;10.30;87.14
33554;BME280;19885;42.208;24.952;2023-04-24T04:45:33;99734.72;;;10.62;87.40
33554;BME280;19885;42.208;24.952;2023-04-24T04:48:00;99732.13;;;10.70;87.75
33554;BME280;19885;42.208;24.952;2023-04-24T04:50:27;99747.00;;;10.92;86.75
33554;BME280;19885;42.208;24.952;2023-04-24T04:52:53;99732.22;;;10.94;87.58
33554;BME280;19885;42.208;24.952;2023-04-24T04:55:18;99740.09;;;11.12;88.06
33554;BME280;19885;42.208;24.952;2023-04-24T04:57:45;99745.34;;;11.21;87.59
33554;BME280;19885;42.208;24.952;2023-04-24T05:00:11;99738.38;;;11.29;87.76
33554;BME280;19885;42.208;24.952;2023-04-24T05:02:37;99747.97;;;11.44;86.85
33554;BME280;19885;42.208;24.952;2023-04-24T05:05:03;99739.25;;;11.49;85.40
33554;BME280;19885;42.208;24.952;2023-04-24T05:07:29;99734.06;;;11.56;85.85
33554;BME280;19885;42.208;24.952;2023-04-24T05:09:54;99734.97;;;11.76;86.45
33554;BME280;19885;42.208;24.952;2023-04-24T05:12:19;99746.28;;;11.96;86.48
33554;BME280;19885;42.208;24.952;2023-04-24T05:14:45;99748.88;;;12.05;84.85
33554;BME280;19885;42.208;24.952;2023-04-24T05:17:10;99748.03;;;12.06;85.44
33554;BME280;19885;42.208;24.952;2023-04-24T05:19:36;99743.66;;;12.12;85.34
33554;BME280;19885;42.208;24.952;2023-04-24T05:22:03;99740.16;;;12.15;84.29
33554;BME280;19885;42.208;24.952;2023-04-24T05:24:32;99730.59;;;12.08;83.80
33554;BME280;19885;42.208;24.952;2023-04-24T05:26:58;99739.25;;;12.25;84.63
33554;BME280;19885;42.208;24.952;2023-04-24T05:29:24;99729.66;;;12.32;82.51
33554;BME280;19885;42.208;24.952;2023-04-24T05:31:50;99735.72;;;12.46;82.98
33554;BME280;19885;42.208;24.952;2023-04-24T05:34:15;99738.41;;;12.26;78.73
33554;BME280;19885;42.208;24.952;2023-04-24T05:36:42;99734.03;;;12.30;80.29
33554;BME280;19885;42.208;24.952;2023-04-24T05:39:08;99740.13;;;12.29;80.84
33554;BME280;19885;42.208;24.952;2023-04-24T05:41:34;99729.69;;;12.18;81.99
33554;BME280;19885;42.208;24.952;2023-04-24T05:44:00;99727.13;;;12.10;81.74
33554;BME280;19885;42.208;24.952;2023-04-24T05:46:25;99703.63;;;12.03;81.79
33554;BME280;19885;42.208;24.952;2023-04-24T05:48:51;99715.78;;;12.16;83.10
33554;BME280;19885;42.208;24.952;2023-04-24T05:51:16;99675.78;;;11.84;83.73
33554;BME280;19885;42.208;24.952;2023-04-24T05:53:42;99718.38;;;12.19;84.35
33554;BME280;19885;42.208;24.952;2023-04-24T05:56:07;99723.59;;;12.13;82.21
33554;BME280;19885;42.208;24.952;2023-04-24T05:58:33;99682.75;;;11.82;82.50
33554;BME280;19885;42.208;24.952;2023-04-24T06:00:58;99708.84;;;12.01;84.39
33554;BME280;19885;42.208;24.952;2023-04-24T06:03:26;99705.34;;;12.07;81.46
33554;BME280;19885;42.208;24.952;2023-04-24T06:05:52;99717.47;;;12.37;83.49
33554;BME280;19885;42.208;24.952;2023-04-24T06:08:18;99698.22;;;12.60;81.19
33554;BME280;19885;42.208;24.952;2023-04-24T06:10:43;99707.75;;;12.73;78.60
33554;BME280;19885;42.208;24.952;2023-04-24T06:13:08;99712.13;;;12.65;79.27
33554;BME280;19885;42.208;24.952;2023-04-24T06:15:35;99717.31;;;12.77;80.00
33554;BME280;19885;42.208;24.952;2023-04-24T06:18:00;99717.22;;;12.96;80.18
33554;BME280;19885;42.208;24.952;2023-04-24T06:20:26;99720.59;;;13.20;80.35
33554;BME280;19885;42.208;24.952;2023-04-24T06:22:51;99714.41;;;13.29;78.60
33554;BME280;19885;42.208;24.952;2023-04-24T06:25:17;99712.81;;;13.02;79.25
33554;BME280;19885;42.208;24.952;2023-04-24T06:27:44;99729.25;;;13.27;82.19
33554;BME280;19885;42.208;24.952;2023-04-24T06:30:10;99729.03;;;13.60;78.33
33554;BME280;19885;42.208;24.952;2023-04-24T06:32:36;99725.50;;;13.67;75.91
33554;BME280;19885;42.208;24.952;2023-04-24T06:35:01;99711.56;;;13.62;77.30
33554;BME280;19885;42.208;24.952;2023-04-24T06:37:27;99715.81;;;13.75;77.40
33554;BME280;19885;42.208;24.952;2023-04-24T06:39:52;99710.59;;;13.72;75.44
33554;BME280;19885;42.208;24.952;2023-04-24T06:42:18;99717.31;;;14.00;76.19
33554;BME280;19885;42.208;24.952;2023-04-24T06:44:46;99727.63;;;14.18;74.58
33554;BME280;19885;42.208;24.952;2023-04-24T06:47:11;99719.00;;;14.10;73.85
33554;BME280;19885;42.208;24.952;2023-04-24T06:49:39;99698.16;;;13.97;74.19
33554;BME280;19885;42.208;24.952;2023-04-24T06:52:05;99717.38;;;13.93;75.37
33554;BME280;19885;42.208;24.952;2023-04-24T06:54:32;99717.41;;;13.91;77.19
33554;BME280;19885;42.208;24.952;2023-04-24T06:56:58;99714.38;;;14.34;76.15
33554;BME280;19885;42.208;24.952;2023-04-24T06:59:24;99710.53;;;14.65;77.28
33554;BME280;19885;42.208;24.952;2023-04-24T07:01:50;99720.75;;;14.86;75.03
33554;BME280;19885;42.208;24.952;2023-04-24T07:04:16;99707.34;;;15.07;72.23
33554;BME280;19885;42.208;24.952;2023-04-24T07:06:42;99704.41;;;15.28;70.79
33554;BME280;19885;42.208;24.952;2023-04-24T07:09:08;99720.78;;;15.48;70.55
33554;BME280;19885;42.208;24.952;2023-04-24T07:11:34;99707.34;;;15.66;72.01
33554;BME280;19885;42.208;24.952;2023-04-24T07:14:00;99715.94;;;15.75;70.42
33554;BME280;19885;42.208;24.952;2023-04-24T07:16:25;99708.56;;;15.46;71.14
33554;BME280;19885;42.208;24.952;2023-04-24T07:18:52;99722.03;;;15.77;70.45
33554;BME280;19885;42.208;24.952;2023-04-24T07:21:17;99709.53;;;15.37;70.55
33554;BME280;19885;42.208;24.952;2023-04-24T07:23:42;99721.22;;;15.75;70.78
33554;BME280;19885;42.208;24.952;2023-04-24T07:26:08;99708.03;;;15.78;71.73
33554;BME280;19885;42.208;24.952;2023-04-24T07:28:33;99718.47;;;15.82;72.93
33554;BME280;19885;42.208;24.952;2023-04-24T07:30:59;99718.38;;;15.87;70.11
33554;BME280;19885;42.208;24.952;2023-04-24T07:33:27;99694.41;;;16.05;70.22
33554;BME280;19885;42.208;24.952;2023-04-24T07:35:53;99720.66;;;16.06;70.38
33554;BME280;19885;42.208;24.952;2023-04-24T07:38:18;99723.22;;;16.58;70.50
33554;BME280;19885;42.208;24.952;2023-04-24T07:40:48;99713.91;;;16.83;67.63
33554;BME280;19885;42.208;24.952;2023-04-24T07:43:13;99719.19;;;16.83;67.48
33554;BME280;19885;42.208;24.952;2023-04-24T07:45:39;99717.84;;;16.64;68.80
33554;BME280;19885;42.208;24.952;2023-04-24T07:48:06;99700.88;;;16.77;67.56
33554;BME280;19885;42.208;24.952;2023-04-24T07:50:34;99723.88;;;16.68;66.88
33554;BME280;19885;42.208;24.952;2023-04-24T07:53:00;99713.31;;;16.25;67.53
33554;BME280;19885;42.208;24.952;2023-04-24T07:55:25;99703.78;;;16.19;71.27
33554;BME280;19885;42.208;24.952;2023-04-24T07:57:51;99710.38;;;16.40;69.78
33554;BME280;19885;42.208;24.952;2023-04-24T08:00:16;99714.00;;;16.34;68.77
33554;BME280;19885;42.208;24.952;2023-04-24T08:02:42;99709.63;;;16.35;70.03
33554;BME280;19885;42.208;24.952;2023-04-24T08:05:08;99691.16;;;16.36;71.04
33554;BME280;19885;42.208;24.952;2023-04-24T08:07:33;99710.03;;;16.60;68.72
33554;BME280;19885;42.208;24.952;2023-04-24T08:10:00;99690.13;;;16.45;68.03
33554;BME280;19885;42.208;24.952;2023-04-24T08:12:27;99704.63;;;16.66;69.07
33554;BME280;19885;42.208;24.952;2023-04-24T08:14:53;99690.78;;;16.58;69.73
33554;BME280;19885;42.208;24.952;2023-04-24T08:17:18;99704.88;;;16.96;67.22
33554;BME280;19885;42.208;24.952;2023-04-24T08:19:44;99710.16;;;16.96;67.22
33554;BME280;19885;42.208;24.952;2023-04-24T08:22:14;99650.69;;;16.86;67.33
33554;BME280;19885;42.208;24.952;2023-04-24T08:24:40;99705.72;;;17.37;68.54
33554;BME280;19885;42.208;24.952;2023-04-24T08:27:05;99692.66;;;17.69;66.80
33554;BME280;19885;42.208;24.952;2023-04-24T08:29:31;99693.66;;;17.97;64.97
33554;BME280;19885;42.208;24.952;2023-04-24T08:31:57;99682.69;;;18.14;65.93
33554;BME280;19885;42.208;24.952;2023-04-24T08:34:22;99661.84;;;18.35;65.45
33554;BME280;19885;42.208;24.952;2023-04-24T08:36:48;99676.22;;;18.58;64.17
33554;BME280;19885;42.208;24.952;2023-04-24T08:39:14;99673.16;;;18.40;63.59
33554;BME280;19885;42.208;24.952;2023-04-24T08:41:42;99659.25;;;18.03;64.42
33554;BME280;19885;42.208;24.952;2023-04-24T08:44:09;99659.72;;;18.17;65.98
33554;BME280;19885;42.208;24.952;2023-04-24T08:46:35;99655.38;;;18.48;63.66
33554;BME280;19885;42.208;24.952;2023-04-24T08:52:39;99643.63;;;18.26;66.60
33554;BME280;19885;42.208;24.952;2023-04-24T08:55:06;99653.28;;;18.60;63.93
33554;BME280;19885;42.208;24.952;2023-04-24T08:57:32;99655.19;;;18.84;62.95
33554;BME280;19885;42.208;24.952;2023-04-24T08:59:58;99654.50;;;18.48;62.25
33554;BME280;19885;42.208;24.952;2023-04-24T09:02:25;99644.72;;;18.81;62.66
33554;BME280;19885;42.208;24.952;2023-04-24T09:04:51;99639.41;;;18.82;62.20
33554;BME280;19885;42.208;24.952;2023-04-24T09:07:19;99637.53;;;18.57;60.85
33554;BME280;19885;42.208;24.952;2023-04-24T09:09:45;99630.69;;;18.19;63.96
33554;BME280;19885;42.208;24.952;2023-04-24T09:12:11;99627.97;;;18.52;63.70
33554;BME280;19885;42.208;24.952;2023-04-24T09:14:36;99638.72;;;18.76;64.30
33554;BME280;19885;42.208;24.952;2023-04-24T09:17:06;99626.34;;;19.05;66.70
33554;BME280;19885;42.208;24.952;2023-04-24T09:19:31;99623.78;;;19.30;62.09
33554;BME280;19885;42.208;24.952;2023-04-24T09:21:57;99619.19;;;19.37;58.77
33554;BME280;19885;42.208;24.952;2023-04-24T09:24:22;99625.28;;;19.39;61.85
33554;BME280;19885;42.208;24.952;2023-04-24T09:26:49;99621.44;;;19.49;57.32
33554;BME280;19885;42.208;24.952;2023-04-24T09:29:18;99614.09;;;19.57;57.83
33554;BME280;19885;42.208;24.952;2023-04-24T09:31:45;99607.53;;;19.93;57.56
33554;BME280;19885;42.208;24.952;2023-04-24T09:34:11;99611.88;;;19.96;60.51
33554;BME280;19885;42.208;24.952;2023-04-24T09:36:38;99609.53;;;19.86;56.44
33554;BME280;19885;42.208;24.952;2023-04-24T09:39:05;99576.03;;;19.62;56.08
33554;BME280;19885;42.208;24.952;2023-04-24T09:41:33;99606.75;;;19.91;57.24
33554;BME280;19885;42.208;24.952;2023-04-24T09:46:42;99609.84;;;20.28;55.09
33554;BME280;19885;42.208;24.952;2023-04-24T09:49:21;99609.59;;;20.34;57.08
33554;BME280;19885;42.208;24.952;2023-04-24T09:51:47;99603.78;;;20.48;58.33
33554;BME280;19885;42.208;24.952;2023-04-24T09:54:17;99600.25;;;20.71;58.45
33554;BME280;19885;42.208;24.952;2023-04-24T09:56:49;99589.38;;;21.00;57.98
33554;BME280;19885;42.208;24.952;2023-04-24T09:59:16;99588.97;;;21.32;52.71
33554;BME280;19885;42.208;24.952;2023-04-24T10:01:42;99586.09;;;21.16;51.62
33554;BME280;19885;42.208;24.952;2023-04-24T10:06:46;99564.31;;;20.87;51.45
33554;BME280;19885;42.208;24.952;2023-04-24T10:09:12;99545.53;;;21.14;57.73
33554;BME280;19885;42.208;24.952;2023-04-24T10:11:42;99557.25;;;21.71;52.75
33554;BME280;19885;42.208;24.952;2023-04-24T10:14:10;99554.00;;;21.44;48.85
33554;BME280;19885;42.208;24.952;2023-04-24T10:16:38;99563.06;;;21.79;50.35
33554;BME280;19885;42.208;24.952;2023-04-24T10:19:04;99511.56;;;21.84;53.56
33554;BME280;19885;42.208;24.952;2023-04-24T10:21:31;99548.13;;;22.35;53.76
33554;BME280;19885;42.208;24.952;2023-04-24T10:23:57;99551.19;;;22.84;51.25
33554;BME280;19885;42.208;24.952;2023-04-24T10:26:26;99545.91;;;22.26;47.40
33554;BME280;19885;42.208;24.952;2023-04-24T10:28:54;99556.53;;;22.26;49.29
33554;BME280;19885;42.208;24.952;2023-04-24T10:31:20;99558.97;;;22.12;46.50
33554;BME280;19885;42.208;24.952;2023-04-24T10:33:46;99552.00;;;22.10;48.30
33554;BME280;19885;42.208;24.952;2023-04-24T10:36:13;99558.25;;;22.27;50.11
33554;BME280;19885;42.208;24.952;2023-04-24T10:38:41;99554.06;;;22.03;48.45
33554;BME280;19885;42.208;24.952;2023-04-24T10:41:12;99550.59;;;22.21;50.97
33554;BME280;19885;42.208;24.952;2023-04-24T10:44:11;99553.38;;;22.18;48.58
33554;BME280;19885;42.208;24.952;2023-04-24T10:46:38;99537.81;;;21.90;47.59
33554;BME280;19885;42.208;24.952;2023-04-24T10:49:05;99505.72;;;21.96;50.37
33554;BME280;19885;42.208;24.952;2023-04-24T10:51:53;99532.06;;;22.38;51.75
33554;BME280;19885;42.208;24.952;2023-04-24T10:54:30;99531.53;;;22.69;53.37
33554;BME280;19885;42.208;24.952;2023-04-24T10:59:44;99513.16;;;22.64;48.03
33554;BME280;19885;42.208;24.952;2023-04-24T11:02:10;99493.81;;;22.80;50.43
33554;BME280;19885;42.208;24.952;2023-04-24T11:04:39;99527.72;;;23.27;53.34
33554;BME280;19885;42.208;24.952;2023-04-24T11:07:04;99478.03;;;23.11;47.62
33554;BME280;19885;42.208;24.952;2023-04-24T11:09:31;99509.31;;;23.06;47.13
33554;BME280;19885;42.208;24.952;2023-04-24T11:12:05;99512.19;;;22.28;48.78
33554;BME280;19885;42.208;24.952;2023-04-24T11:17:34;99501.78;;;22.97;48.93
33554;BME280;19885;42.208;24.952;2023-04-24T11:20:07;99494.00;;;23.11;49.59
33554;BME280;19885;42.208;24.952;2023-04-24T11:22:35;99448.72;;;22.59;49.13
33554;BME280;19885;42.208;24.952;2023-04-24T11:25:04;99488.91;;;22.89;49.46
33554;BME280;19885;42.208;24.952;2023-04-24T11:27:31;99473.03;;;23.05;49.19
33554;BME280;19885;42.208;24.952;2023-04-24T11:30:01;99472.66;;;23.47;51.41
33554;BME280;19885;42.208;24.952;2023-04-24T11:35:08;99469.34;;;24.08;49.68
33554;BME280;19885;42.208;24.952;2023-04-24T11:40:03;99433.59;;;23.64;47.15
33554;BME280;19885;42.208;24.952;2023-04-24T11:42:37;99459.59;;;23.59;48.74
33554;BME280;19885;42.208;24.952;2023-04-24T11:45:27;99464.38;;;23.18;48.74
33554;BME280;19885;42.208;24.952;2023-04-24T11:47:53;99454.91;;;23.47;48.89
33554;BME280;19885;42.208;24.952;2023-04-24T11:50:22;99455.22;;;23.41;48.14
33554;BME280;19885;42.208;24.952;2023-04-24T11:52:51;99452.53;;;23.24;48.05
33554;BME280;19885;42.208;24.952;2023-04-24T11:57:45;99426.50;;;23.48;46.60
33554;BME280;19885;42.208;24.952;2023-04-24T12:00:16;99426.53;;;23.80;46.65
33554;BME280;19885;42.208;24.952;2023-04-24T12:02:44;99422.25;;;23.93;47.10
33554;BME280;19885;42.208;24.952;2023-04-24T12:05:27;99411.94;;;23.55;46.44
33554;BME280;19885;42.208;24.952;2023-04-24T12:07:53;99369.16;;;23.25;46.89
33554;BME280;19885;42.208;24.952;2023-04-24T12:10:21;99425.16;;;23.56;48.90
33554;BME280;19885;42.208;24.952;2023-04-24T12:12:47;99407.78;;;23.66;49.78
33554;BME280;19885;42.208;24.952;2023-04-24T12:15:16;99382.81;;;23.52;47.89
33554;BME280;19885;42.208;24.952;2023-04-24T12:17:42;99388.38;;;23.80;47.25
33554;BME280;19885;42.208;24.952;2023-04-24T12:20:09;99383.19;;;23.61;47.57
33554;BME280;19885;42.208;24.952;2023-04-24T12:22:53;99387.81;;;23.08;47.60
33554;BME280;19885;42.208;24.952;2023-04-24T12:25:24;99359.66;;;23.04;48.91
33554;BME280;19885;42.208;24.952;2023-04-24T12:30:30;99380.44;;;23.30;50.70
33554;BME280;19885;42.208;24.952;2023-04-24T12:33:00;99364.03;;;23.39;48.52
33554;BME280;19885;42.208;24.952;2023-04-24T12:35:28;99368.78;;;23.65;47.08
33554;BME280;19885;42.208;24.952;2023-04-24T12:37:54;99364.81;;;23.57;48.63
33554;BME280;19885;42.208;24.952;2023-04-24T12:40:21;99360.63;;;23.53;48.51
33554;BME280;19885;42.208;24.952;2023-04-24T12:42:50;99348.72;;;23.75;52.58
33554;BME280;19885;42.208;24.952;2023-04-24T12:45:17;99346.66;;;23.80;47.67
33554;BME280;19885;42.208;24.952;2023-04-24T12:47:44;99348.00;;;23.72;50.04
33554;BME280;19885;42.208;24.952;2023-04-24T12:50:12;99332.03;;;23.56;47.05
33554;BME280;19885;42.208;24.952;2023-04-24T12:52:38;99333.16;;;23.68;49.13
33554;BME280;19885;42.208;24.952;2023-04-24T12:55:07;99322.25;;;24.03;47.41
33554;BME280;19885;42.208;24.952;2023-04-24T12:57:35;99314.38;;;24.18;46.97
33554;BME280;19885;42.208;24.952;2023-04-24T13:00:01;99317.53;;;24.24;47.04
33554;BME280;19885;42.208;24.952;2023-04-24T13:02:29;99310.34;;;24.10;47.07
33554;BME280;19885;42.208;24.952;2023-04-24T13:04:57;99303.38;;;24.24;45.47
33554;BME280;19885;42.208;24.952;2023-04-24T13:07:23;99297.22;;;24.07;47.31
33554;BME280;19885;42.208;24.952;2023-04-24T13:09:49;99280.78;;;23.37;47.28
33554;BME280;19885;42.208;24.952;2023-04-24T13:12:15;99273.13;;;23.47;48.88
33554;BME280;19885;42.208;24.952;2023-04-24T13:14:41;99280.97;;;23.65;47.69